createdAt,value
2022-08-22T00:00:11.353Z,16.99
2022-08-22T00:01:11.324Z,16.85
2022-08-22T00:02:11.395Z,16.65
2022-08-22T00:02:49.198Z,19.21
2022-08-22T00:02:54.355Z,19.85
2022-08-22T00:02:59.391Z,17.35
2022-08-22T00:03:00.889Z,17.94
2022-08-22T00:03:02.260Z,20.20
2022-08-22T00:03:04.653Z,21.68
2022-08-22T00:03:12.194Z,18.39
2022-08-22T00:03:18.784Z,16.47
2022-08-22T00:04:13.306Z,16.29
2022-08-22T00:05:11.288Z,16.08
2022-08-22T00:06:11.272Z,16.26
2022-08-22T00:07:11.325Z,16.26
2022-08-22T00:08:11.281Z,16.42
2022-08-22T00:09:11.328Z,16.57
2022-08-22T00:10:11.252Z,16.67
2022-08-22T00:11:12.283Z,16.85
2022-08-22T00:12:11.267Z,16.95
2022-08-22T00:13:11.255Z,16.99
2022-08-22T00:14:11.247Z,17.00
2022-08-22T00:15:16.804Z,17.06
2022-08-22T00:16:12.229Z,16.82
2022-08-22T00:17:11.215Z,16.54
2022-08-22T00:18:11.244Z,16.25
2022-08-22T00:19:11.225Z,16.16
2022-08-22T00:20:11.213Z,15.92
2022-08-22T00:21:11.204Z,15.73
2022-08-22T00:22:11.175Z,15.66
2022-08-22T00:23:11.181Z,15.66
2022-08-22T00:24:11.220Z,15.55
2022-08-22T00:25:24.670Z,15.34
2022-08-22T00:26:12.146Z,15.22
2022-08-22T00:27:11.166Z,15.23
2022-08-22T00:28:11.152Z,15.44
2022-08-22T00:29:11.159Z,15.52
2022-08-22T00:30:11.143Z,15.51
2022-08-22T00:31:11.117Z,15.33
2022-08-22T00:32:11.149Z,15.15
2022-08-22T00:33:11.116Z,14.97
2022-08-22T00:34:11.185Z,15.19
2022-08-22T00:35:11.098Z,15.34
2022-08-22T00:36:11.098Z,15.25
2022-08-22T00:37:11.072Z,15.07
2022-08-22T00:38:11.068Z,14.97
2022-08-22T00:39:11.078Z,14.95
2022-08-22T00:40:11.146Z,14.94
2022-08-22T00:41:11.062Z,14.85
2022-08-22T00:42:11.062Z,14.80
2022-08-22T00:43:11.050Z,14.80
2022-08-22T00:44:11.010Z,14.75
2022-08-22T00:45:11.053Z,14.74
2022-08-22T00:46:11.057Z,14.71
2022-08-22T00:47:11.006Z,14.59
2022-08-22T00:48:11.012Z,14.54
2022-08-22T00:49:10.981Z,14.72
2022-08-22T00:50:11.015Z,14.71
2022-08-22T00:51:11.032Z,14.83
2022-08-22T00:52:10.996Z,14.95
2022-08-22T00:53:10.979Z,14.85
2022-08-22T00:54:16.780Z,14.82
2022-08-22T00:55:11.946Z,14.85
2022-08-22T00:56:10.968Z,14.67
2022-08-22T00:57:11.012Z,14.79
2022-08-22T00:58:11.009Z,14.78
2022-08-22T00:59:22.913Z,14.78
2022-08-22T01:00:11.977Z,14.67
2022-08-22T01:01:10.961Z,14.57
2022-08-22T01:02:10.900Z,14.71
2022-08-22T01:03:10.965Z,14.74
2022-08-22T01:04:10.899Z,14.85
2022-08-22T01:05:10.939Z,15.04
2022-08-22T01:06:10.882Z,15.19
2022-08-22T01:07:10.905Z,15.28
2022-08-22T01:08:10.952Z,15.25
2022-08-22T01:09:10.902Z,15.18
2022-08-22T01:10:10.881Z,14.97
2022-08-22T01:11:10.855Z,14.98
2022-08-22T01:12:10.845Z,15.03
2022-08-22T01:13:10.821Z,14.86
2022-08-22T01:14:10.855Z,14.78
2022-08-22T01:15:10.815Z,14.93
2022-08-22T01:16:10.810Z,14.97
2022-08-22T01:17:10.808Z,15.00
2022-08-22T01:18:10.809Z,15.09
2022-08-22T01:19:10.814Z,15.23
2022-08-22T01:20:10.783Z,15.25
2022-08-22T01:21:10.779Z,15.46
2022-08-22T01:22:10.822Z,15.37
2022-08-22T01:23:10.760Z,15.23
2022-08-22T01:24:10.822Z,15.03
2022-08-22T01:25:10.748Z,14.95
2022-08-22T01:26:10.779Z,14.67
2022-08-22T01:27:10.744Z,14.71
2022-08-22T01:28:10.769Z,14.91
2022-08-22T01:29:10.753Z,15.01
2022-08-22T01:30:10.804Z,15.22
2022-08-22T01:31:10.728Z,15.38
2022-08-22T01:32:10.689Z,15.52
2022-08-22T01:33:10.696Z,15.58
2022-08-22T01:34:12.865Z,15.67
2022-08-22T01:35:10.705Z,15.84
2022-08-22T01:36:10.699Z,15.91
2022-08-22T01:37:10.635Z,15.89
2022-08-22T01:38:10.657Z,16.04
2022-08-22T01:39:10.666Z,15.99
2022-08-22T01:40:10.751Z,16.10
2022-08-22T01:41:12.059Z,16.11
2022-08-22T01:42:10.693Z,16.03
2022-08-22T01:43:10.613Z,15.86
2022-08-22T01:44:10.632Z,15.48
2022-08-22T01:45:10.627Z,15.27
2022-08-22T01:46:10.587Z,14.93
2022-08-22T01:47:10.644Z,14.75
2022-08-22T01:48:10.569Z,14.61
2022-08-22T01:49:10.600Z,14.49
2022-08-22T01:50:10.566Z,14.52
2022-08-22T01:51:10.558Z,14.66
2022-08-22T01:52:10.634Z,14.72
2022-08-22T01:53:10.552Z,14.86
2022-08-22T01:54:10.569Z,14.97
2022-08-22T01:55:10.558Z,14.90
2022-08-22T01:56:10.597Z,15.12
2022-08-22T01:57:10.548Z,15.22
2022-08-22T01:58:10.532Z,15.22
2022-08-22T01:59:11.353Z,15.25
2022-08-22T02:00:10.497Z,15.33
2022-08-22T02:01:10.563Z,15.30
2022-08-22T02:02:10.535Z,15.48
2022-08-22T02:03:10.503Z,15.38
2022-08-22T02:04:10.461Z,15.60
2022-08-22T02:05:10.535Z,15.59
2022-08-22T02:06:10.463Z,15.70
2022-08-22T02:07:10.524Z,15.76
2022-08-22T02:08:10.495Z,15.78
2022-08-22T02:09:10.435Z,15.70
2022-08-22T02:10:10.475Z,15.76
2022-08-22T02:11:10.409Z,15.78
2022-08-22T02:12:21.376Z,15.91
2022-08-22T02:13:11.461Z,15.92
2022-08-22T02:14:10.399Z,15.91
2022-08-22T02:15:10.417Z,15.76
2022-08-22T02:16:10.431Z,15.70
2022-08-22T02:17:10.410Z,15.68
2022-08-22T02:18:10.411Z,15.71
2022-08-22T02:19:10.438Z,15.74
2022-08-22T02:20:10.394Z,15.78
2022-08-22T02:21:10.360Z,15.84
2022-08-22T02:22:10.372Z,15.89
2022-08-22T02:23:10.355Z,15.88
2022-08-22T02:24:10.346Z,15.96
2022-08-22T02:25:10.422Z,16.06
2022-08-22T02:26:10.354Z,15.95
2022-08-22T02:27:10.363Z,16.16
2022-08-22T02:28:10.299Z,16.13
2022-08-22T02:29:10.386Z,16.08
2022-08-22T02:30:10.333Z,15.98
2022-08-22T02:31:10.336Z,15.71
2022-08-22T02:32:11.282Z,15.51
2022-08-22T02:33:10.293Z,15.22
2022-08-22T02:34:10.262Z,14.86
2022-08-22T02:35:10.278Z,14.71
2022-08-22T02:36:10.295Z,14.61
2022-08-22T02:37:10.278Z,14.42
2022-08-22T02:38:10.240Z,14.27
2022-08-22T02:39:10.276Z,14.39
2022-08-22T02:40:11.343Z,14.57
2022-08-22T02:41:10.265Z,14.59
2022-08-22T02:42:10.332Z,14.71
2022-08-22T02:43:10.245Z,14.87
2022-08-22T02:44:10.190Z,14.95
2022-08-22T02:45:10.280Z,15.09
2022-08-22T02:46:10.189Z,15.16
2022-08-22T02:47:10.185Z,15.23
2022-08-22T02:48:10.241Z,15.34
2022-08-22T02:49:10.208Z,15.31
2022-08-22T02:50:13.075Z,15.16
2022-08-22T02:51:10.204Z,14.95
2022-08-22T02:52:10.293Z,15.00
2022-08-22T02:53:10.154Z,14.93
2022-08-22T02:54:10.124Z,14.93
2022-08-22T02:55:10.197Z,14.93
2022-08-22T02:56:10.107Z,14.93
2022-08-22T02:57:14.154Z,14.87
2022-08-22T02:58:10.133Z,15.01
2022-08-22T02:59:10.091Z,15.03
2022-08-22T03:00:30.778Z,15.01
2022-08-22T03:01:11.103Z,15.18
2022-08-22T03:02:10.050Z,15.23
2022-08-22T03:03:10.103Z,15.27
2022-08-22T03:04:10.091Z,15.38
2022-08-22T03:05:10.070Z,15.46
2022-08-22T03:06:10.025Z,15.41
2022-08-22T03:07:10.051Z,15.53
2022-08-22T03:08:10.051Z,15.49
2022-08-22T03:09:10.047Z,15.53
2022-08-22T03:10:10.011Z,15.55
2022-08-22T03:11:10.043Z,15.51
2022-08-22T03:12:10.042Z,15.49
2022-08-22T03:13:09.998Z,15.55
2022-08-22T03:14:10.009Z,15.56
2022-08-22T03:15:09.990Z,15.51
2022-08-22T03:16:09.990Z,15.52
2022-08-22T03:17:09.978Z,15.52
2022-08-22T03:18:09.961Z,15.11
2022-08-22T03:19:16.181Z,14.71
2022-08-22T03:20:10.980Z,14.38
2022-08-22T03:21:09.950Z,14.11
2022-08-22T03:22:09.919Z,13.99
2022-08-22T03:23:10.937Z,13.86
2022-08-22T03:24:09.904Z,13.80
2022-08-22T03:25:09.946Z,13.73
2022-08-22T03:26:09.889Z,13.81
2022-08-22T03:27:09.911Z,13.94
2022-08-22T03:28:09.881Z,14.04
2022-08-22T03:29:09.889Z,14.17
2022-08-22T03:30:09.965Z,14.17
2022-08-22T03:31:09.877Z,14.31
2022-08-22T03:32:09.879Z,14.45
2022-08-22T03:33:09.861Z,14.57
2022-08-22T03:34:09.824Z,14.66
2022-08-22T03:35:09.815Z,14.64
2022-08-22T03:36:10.857Z,14.71
2022-08-22T03:37:09.823Z,14.83
2022-08-22T03:38:09.855Z,14.94
2022-08-22T03:39:16.673Z,14.97
2022-08-22T03:40:10.857Z,14.98
2022-08-22T03:41:09.777Z,15.04
2022-08-22T03:42:09.801Z,15.04
2022-08-22T03:43:09.776Z,15.16
2022-08-22T03:44:09.793Z,15.07
2022-08-22T03:45:09.751Z,15.19
2022-08-22T03:46:09.771Z,15.12
2022-08-22T03:47:09.831Z,15.16
2022-08-22T03:48:09.732Z,15.07
2022-08-22T03:49:09.741Z,15.07
2022-08-22T03:50:09.726Z,15.01
2022-08-22T03:51:09.713Z,15.00
2022-08-22T03:52:09.744Z,15.04
2022-08-22T03:53:10.323Z,14.90
2022-08-22T03:54:10.716Z,14.66
2022-08-22T03:55:09.683Z,14.23
2022-08-22T03:56:09.654Z,14.02
2022-08-22T03:57:09.677Z,13.98
2022-08-22T03:58:12.016Z,13.94
2022-08-22T03:59:10.711Z,13.98
2022-08-22T04:00:09.647Z,13.87
2022-08-22T04:01:09.729Z,13.66
2022-08-22T04:02:43.619Z,13.76
2022-08-22T04:03:10.600Z,13.93
2022-08-22T04:04:09.611Z,13.86
2022-08-22T04:05:09.641Z,13.96
2022-08-22T04:06:12.794Z,14.01
2022-08-22T04:07:28.557Z,14.11
2022-08-22T04:08:11.250Z,14.20
2022-08-22T04:09:09.581Z,14.09
2022-08-22T04:10:09.625Z,14.11
2022-08-22T04:11:09.557Z,14.12
2022-08-22T04:12:09.623Z,14.19
2022-08-22T04:13:09.539Z,14.27
2022-08-22T04:14:09.569Z,14.24
2022-08-22T04:15:09.533Z,14.20
2022-08-22T04:16:09.589Z,14.30
2022-08-22T04:17:09.507Z,14.23
2022-08-22T04:18:09.520Z,14.31
2022-08-22T04:19:09.508Z,14.35
2022-08-22T04:20:09.551Z,14.45
2022-08-22T04:21:09.498Z,14.54
2022-08-22T04:22:09.481Z,14.59
2022-08-22T04:23:09.489Z,14.56
2022-08-22T04:24:09.459Z,14.64
2022-08-22T04:25:09.511Z,14.42
2022-08-22T04:26:12.245Z,14.21
2022-08-22T04:27:09.478Z,14.12
2022-08-22T04:28:09.503Z,14.11
2022-08-22T04:29:09.456Z,14.04
2022-08-22T04:30:09.422Z,14.16
2022-08-22T04:31:09.529Z,14.30
2022-08-22T04:32:14.003Z,14.31
2022-08-22T04:33:11.470Z,14.35
2022-08-22T04:34:09.445Z,14.49
2022-08-22T04:35:09.393Z,14.46
2022-08-22T04:36:09.377Z,14.52
2022-08-22T04:37:09.377Z,14.48
2022-08-22T04:38:09.350Z,14.36
2022-08-22T04:39:09.400Z,14.29
2022-08-22T04:40:09.389Z,14.12
2022-08-22T04:41:09.346Z,13.98
2022-08-22T04:42:31.082Z,14.09
2022-08-22T04:43:11.311Z,14.12
2022-08-22T04:44:09.366Z,14.16
2022-08-22T04:45:09.288Z,14.06
2022-08-22T04:46:09.286Z,13.81
2022-08-22T04:47:09.272Z,13.73
2022-08-22T04:48:09.292Z,13.69
2022-08-22T04:49:09.312Z,13.73
2022-08-22T04:50:09.296Z,14.06
2022-08-22T04:51:09.244Z,14.48
2022-08-22T04:52:09.253Z,14.82
2022-08-22T04:53:09.209Z,15.34
2022-08-22T04:54:10.212Z,15.91
2022-08-22T04:55:09.230Z,16.41
2022-08-22T04:56:10.256Z,16.96
2022-08-22T04:57:09.221Z,17.35
2022-08-22T04:58:09.195Z,17.76
2022-08-22T04:59:09.210Z,18.14
2022-08-22T05:00:09.162Z,18.57
2022-08-22T05:01:09.198Z,18.72
2022-08-22T05:02:09.284Z,19.06
2022-08-22T05:03:09.211Z,19.15
2022-08-22T05:04:09.189Z,19.25
2022-08-22T05:05:13.581Z,18.99
2022-08-22T05:06:09.170Z,19.02
2022-08-22T05:07:09.100Z,18.71
2022-08-22T05:08:09.183Z,18.66
2022-08-22T05:09:11.892Z,18.19
2022-08-22T05:10:12.162Z,17.87
2022-08-22T05:11:09.101Z,17.76
2022-08-22T05:12:09.149Z,18.10
2022-08-22T05:13:09.136Z,18.57
2022-08-22T05:14:09.075Z,18.84
2022-08-22T05:15:09.814Z,18.99
2022-08-22T05:16:09.077Z,19.17
2022-08-22T05:17:09.146Z,19.46
2022-08-22T05:18:09.082Z,19.80
2022-08-22T05:19:12.017Z,20.02
2022-08-22T05:20:10.107Z,20.22
2022-08-22T05:21:09.038Z,20.51
2022-08-22T05:22:09.083Z,20.38
2022-08-22T05:23:17.375Z,20.26
2022-08-22T05:24:10.026Z,19.35
2022-08-22T05:25:09.065Z,18.87
2022-08-22T05:26:09.106Z,18.72
2022-08-22T05:27:08.994Z,18.94
2022-08-22T05:28:08.993Z,19.10
2022-08-22T05:29:09.026Z,19.42
2022-08-22T05:30:09.012Z,19.70
2022-08-22T05:31:08.972Z,19.98
2022-08-22T05:32:08.960Z,20.23
2022-08-22T05:33:08.967Z,20.26
2022-08-22T05:34:09.025Z,20.31
2022-08-22T05:35:08.986Z,20.46
2022-08-22T05:36:09.334Z,20.57
2022-08-22T05:37:08.956Z,20.72
2022-08-22T05:38:08.956Z,20.91
2022-08-22T05:39:08.907Z,21.00
2022-08-22T05:40:10.023Z,21.00
2022-08-22T05:41:08.978Z,21.05
2022-08-22T05:42:08.915Z,21.08
2022-08-22T05:43:08.877Z,21.28
2022-08-22T05:44:08.895Z,21.19
2022-08-22T05:45:12.110Z,21.21
2022-08-22T05:46:08.934Z,21.31
2022-08-22T05:47:08.879Z,21.21
2022-08-22T05:48:08.861Z,20.98
2022-08-22T05:49:08.920Z,20.94
2022-08-22T05:50:08.888Z,20.75
2022-08-22T05:51:08.927Z,20.78
2022-08-22T05:52:08.837Z,20.68
2022-08-22T05:53:08.854Z,20.61
2022-08-22T05:54:08.833Z,20.64
2022-08-22T05:55:08.812Z,20.38
2022-08-22T05:56:08.875Z,19.95
2022-08-22T05:57:08.832Z,19.70
2022-08-22T05:58:08.784Z,19.46
2022-08-22T05:59:08.814Z,19.34
2022-08-22T06:00:08.806Z,19.30
2022-08-22T06:01:08.830Z,19.09
2022-08-22T06:02:08.849Z,19.10
2022-08-22T06:03:08.803Z,18.94
2022-08-22T06:04:08.755Z,18.78
2022-08-22T06:05:12.057Z,18.76
2022-08-22T06:06:09.822Z,18.57
2022-08-22T06:07:08.804Z,18.34
2022-08-22T06:08:08.745Z,18.31
2022-08-22T06:09:08.742Z,18.04
2022-08-22T06:10:08.745Z,17.99
2022-08-22T06:11:08.738Z,17.86
2022-08-22T06:12:08.778Z,17.95
2022-08-22T06:13:11.523Z,17.80
2022-08-22T06:14:08.707Z,17.53
2022-08-22T06:15:12.006Z,17.73
2022-08-22T06:16:09.368Z,17.91
2022-08-22T06:17:08.715Z,17.77
2022-08-22T06:18:08.713Z,17.79
2022-08-22T06:19:19.479Z,17.92
2022-08-22T06:20:09.666Z,18.21
2022-08-22T06:21:08.668Z,18.36
2022-08-22T06:22:08.666Z,18.51
2022-08-22T06:23:08.673Z,18.75
2022-08-22T06:24:08.766Z,18.94
2022-08-22T06:25:08.727Z,19.12
2022-08-22T06:26:21.014Z,19.21
2022-08-22T06:27:09.668Z,19.32
2022-08-22T06:28:08.724Z,19.39
2022-08-22T06:29:08.660Z,19.40
2022-08-22T06:30:08.762Z,19.61
2022-08-22T06:31:08.629Z,19.64
2022-08-22T06:32:08.616Z,19.78
2022-08-22T06:33:08.779Z,19.98
2022-08-22T06:34:08.641Z,20.12
2022-08-22T06:35:08.595Z,20.19
2022-08-22T06:36:08.585Z,20.31
2022-08-22T06:37:08.642Z,20.48
2022-08-22T06:38:08.598Z,20.42
2022-08-22T06:39:08.602Z,20.64
2022-08-22T06:40:08.630Z,20.63
2022-08-22T06:41:08.638Z,20.63
2022-08-22T06:42:10.337Z,20.40
2022-08-22T06:43:08.532Z,20.13
2022-08-22T06:44:08.556Z,20.15
2022-08-22T06:45:08.612Z,20.12
2022-08-22T06:46:08.588Z,20.23
2022-08-22T06:47:08.531Z,20.54
2022-08-22T06:48:08.541Z,20.66
2022-08-22T06:49:08.478Z,20.87
2022-08-22T06:50:13.750Z,21.05
2022-08-22T06:51:09.567Z,21.24
2022-08-22T06:52:08.480Z,21.28
2022-08-22T06:53:08.488Z,20.98
2022-08-22T06:54:08.461Z,20.76
2022-08-22T06:55:08.490Z,20.71
2022-08-22T06:56:08.728Z,20.69
2022-08-22T06:57:08.479Z,20.19
2022-08-22T06:58:08.503Z,19.92
2022-08-22T06:59:08.430Z,19.82
2022-08-22T07:00:08.429Z,19.94
2022-08-22T07:01:12.433Z,20.25
2022-08-22T07:02:08.493Z,20.26
2022-08-22T07:03:08.442Z,19.86
2022-08-22T07:04:08.417Z,20.04
2022-08-22T07:05:08.385Z,20.17
2022-08-22T07:06:08.386Z,20.26
2022-08-22T07:07:08.423Z,20.34
2022-08-22T07:08:08.384Z,20.50
2022-08-22T07:09:08.375Z,20.68
2022-08-22T07:10:08.381Z,20.66
2022-08-22T07:11:08.365Z,20.48
2022-08-22T07:12:08.388Z,20.50
2022-08-22T07:13:08.395Z,20.79
2022-08-22T07:14:08.335Z,20.82
2022-08-22T07:15:08.333Z,21.00
2022-08-22T07:16:08.411Z,21.12
2022-08-22T07:17:08.481Z,21.16
2022-08-22T07:18:08.354Z,21.13
2022-08-22T07:19:08.296Z,21.11
2022-08-22T07:20:08.291Z,21.09
2022-08-22T07:21:08.327Z,21.03
2022-08-22T07:22:08.300Z,21.15
2022-08-22T07:23:08.257Z,20.98
2022-08-22T07:24:08.265Z,20.66
2022-08-22T07:25:08.306Z,20.71
2022-08-22T07:26:08.284Z,20.78
2022-08-22T07:27:08.286Z,20.97
2022-08-22T07:28:08.282Z,21.13
2022-08-22T07:29:11.565Z,21.22
2022-08-22T07:30:10.204Z,21.42
2022-08-22T07:31:08.239Z,21.59
2022-08-22T07:32:08.237Z,21.81
2022-08-22T07:33:25.694Z,22.06
2022-08-22T07:34:09.244Z,22.21
2022-08-22T07:35:08.278Z,22.23
2022-08-22T07:36:08.248Z,22.24
2022-08-22T07:37:08.194Z,22.24
2022-08-22T07:38:08.191Z,22.23
2022-08-22T07:39:08.167Z,22.36
2022-08-22T07:40:08.223Z,22.33
2022-08-22T07:41:08.214Z,22.51
2022-08-22T07:42:08.205Z,22.44
2022-08-22T07:43:08.132Z,22.48
2022-08-22T07:44:08.135Z,22.60
2022-08-22T07:45:08.124Z,22.63
2022-08-22T07:46:08.111Z,22.81
2022-08-22T07:47:08.158Z,22.91
2022-08-22T07:48:08.171Z,23.15
2022-08-22T07:49:09.758Z,22.99
2022-08-22T07:50:09.108Z,22.97
2022-08-22T07:51:08.132Z,22.94
2022-08-22T07:52:08.162Z,22.69
2022-08-22T07:53:08.110Z,22.56
2022-08-22T07:54:08.074Z,22.44
2022-08-22T07:55:08.113Z,22.57
2022-08-22T07:56:08.071Z,22.52
2022-08-22T07:57:08.054Z,22.52
2022-08-22T07:58:08.181Z,22.75
2022-08-22T07:59:12.793Z,22.67
2022-08-22T08:00:10.050Z,22.70
2022-08-22T08:01:08.062Z,22.70
2022-08-22T08:02:08.048Z,22.78
2022-08-22T08:03:08.027Z,22.91
2022-08-22T08:04:08.086Z,22.86
2022-08-22T08:05:07.999Z,22.76
2022-08-22T08:06:08.026Z,22.66
2022-08-22T08:07:07.984Z,22.45
2022-08-22T08:08:08.114Z,22.20
2022-08-22T08:09:07.959Z,22.29
2022-08-22T08:10:11.237Z,22.44
2022-08-22T08:11:09.941Z,22.52
2022-08-22T08:12:07.942Z,22.79
2022-08-22T08:13:08.012Z,23.04
2022-08-22T08:14:07.973Z,23.22
2022-08-22T08:15:08.957Z,23.22
2022-08-22T08:16:07.923Z,23.42
2022-08-22T08:17:07.919Z,23.71
2022-08-22T08:18:07.929Z,23.79
2022-08-22T08:19:07.939Z,23.96
2022-08-22T08:20:07.948Z,24.06
2022-08-22T08:21:07.887Z,24.11
2022-08-22T08:22:07.926Z,24.21
2022-08-22T08:23:07.884Z,24.26
2022-08-22T08:24:07.930Z,24.30
2022-08-22T08:25:07.994Z,24.52
2022-08-22T08:26:07.877Z,24.33
2022-08-22T08:27:07.862Z,23.69
2022-08-22T08:28:07.851Z,23.14
2022-08-22T08:29:07.895Z,22.96
2022-08-22T08:30:11.069Z,22.91
2022-08-22T08:31:08.879Z,23.09
2022-08-22T08:32:07.819Z,23.37
2022-08-22T08:33:24.889Z,23.31
2022-08-22T08:34:08.792Z,23.45
2022-08-22T08:35:07.802Z,23.41
2022-08-22T08:36:07.821Z,23.59
2022-08-22T08:37:07.810Z,23.35
2022-08-22T08:38:07.779Z,23.44
2022-08-22T08:39:07.780Z,23.60
2022-08-22T08:40:07.839Z,23.72
2022-08-22T08:41:07.821Z,23.84
2022-08-22T08:42:07.732Z,23.49
2022-08-22T08:43:10.646Z,23.74
2022-08-22T08:44:07.725Z,23.92
2022-08-22T08:45:07.758Z,24.21
2022-08-22T08:46:07.774Z,24.06
2022-08-22T08:47:07.754Z,23.82
2022-08-22T08:48:07.733Z,23.86
2022-08-22T08:49:07.777Z,24.12
2022-08-22T08:50:07.724Z,24.23
2022-08-22T08:51:07.669Z,24.42
2022-08-22T08:52:07.650Z,24.66
2022-08-22T08:53:07.869Z,24.68
2022-08-22T08:54:07.660Z,24.77
2022-08-22T08:55:19.855Z,24.97
2022-08-22T08:56:08.696Z,25.09
2022-08-22T08:57:07.687Z,25.22
2022-08-22T08:58:07.663Z,25.41
2022-08-22T08:59:10.019Z,25.66
2022-08-22T09:00:07.632Z,25.76
2022-08-22T09:01:07.689Z,25.97
2022-08-22T09:02:07.633Z,26.23
2022-08-22T09:03:07.628Z,26.36
2022-08-22T09:04:15.329Z,26.41
2022-08-22T09:05:08.579Z,26.35
2022-08-22T09:06:07.597Z,26.53
2022-08-22T09:07:07.579Z,26.54
2022-08-22T09:08:07.601Z,26.54
2022-08-22T09:09:07.592Z,26.20
2022-08-22T09:10:07.600Z,25.57
2022-08-22T09:11:09.783Z,25.48
2022-08-22T09:12:07.596Z,25.26
2022-08-22T09:13:12.454Z,25.04
2022-08-22T09:14:08.534Z,25.14
2022-08-22T09:15:11.929Z,25.30
2022-08-22T09:16:09.957Z,25.53
2022-08-22T09:17:07.492Z,25.75
2022-08-22T09:18:07.629Z,26.09
2022-08-22T09:19:07.545Z,26.23
2022-08-22T09:20:17.548Z,26.47
2022-08-22T09:21:08.595Z,26.56
2022-08-22T09:22:14.557Z,26.68
2022-08-22T09:23:10.200Z,26.87
2022-08-22T09:24:07.503Z,26.91
2022-08-22T09:25:07.471Z,27.13
2022-08-22T09:26:07.540Z,27.42
2022-08-22T09:27:08.593Z,27.53
2022-08-22T09:28:07.532Z,27.68
2022-08-22T09:29:07.467Z,27.78
2022-08-22T09:30:07.512Z,27.76
2022-08-22T09:31:18.715Z,27.68
2022-08-22T09:32:13.076Z,27.66
2022-08-22T09:33:07.410Z,27.72
2022-08-22T09:34:07.402Z,27.43
2022-08-22T09:35:07.441Z,27.06
2022-08-22T09:36:12.284Z,26.38
2022-08-22T09:37:08.374Z,26.11
2022-08-22T09:38:08.400Z,26.41
2022-08-22T09:39:07.394Z,26.47
2022-08-22T09:40:08.200Z,26.57
2022-08-22T09:41:07.379Z,26.51
2022-08-22T09:42:08.150Z,26.20
2022-08-22T09:43:07.390Z,25.59
2022-08-22T09:44:07.375Z,25.66
2022-08-22T09:45:07.442Z,25.35
2022-08-22T09:46:07.419Z,25.66
2022-08-22T09:47:07.410Z,25.85
2022-08-22T09:48:07.783Z,26.34
2022-08-22T09:49:07.354Z,26.73
2022-08-22T09:50:07.497Z,27.01
2022-08-22T09:51:28.532Z,27.20
2022-08-22T09:52:15.218Z,27.33
2022-08-22T09:53:08.345Z,27.45
2022-08-22T09:54:07.295Z,27.23
2022-08-22T09:55:08.118Z,26.68
2022-08-22T09:56:11.746Z,26.47
2022-08-22T09:57:08.303Z,26.11
2022-08-22T09:58:11.512Z,26.06
2022-08-22T09:59:07.274Z,26.29
2022-08-22T10:00:07.267Z,26.21
2022-08-22T10:01:07.347Z,26.13
2022-08-22T10:02:07.340Z,26.38
2022-08-22T10:03:08.260Z,26.66
2022-08-22T10:04:07.244Z,26.87
2022-08-22T10:05:07.265Z,26.69
2022-08-22T10:06:09.209Z,26.96
2022-08-22T10:07:11.597Z,26.94
2022-08-22T10:08:11.302Z,26.59
2022-08-22T10:09:09.040Z,26.31
2022-08-22T10:10:07.202Z,26.47
2022-08-22T10:11:07.202Z,26.60
2022-08-22T10:12:12.278Z,26.71
2022-08-22T10:13:10.499Z,26.56
2022-08-22T10:14:07.207Z,26.42
2022-08-22T10:15:07.229Z,26.46
2022-08-22T10:16:07.180Z,26.36
2022-08-22T10:17:07.332Z,26.39
2022-08-22T10:18:07.164Z,26.27
2022-08-22T10:19:07.172Z,26.32
2022-08-22T10:20:07.182Z,26.73
2022-08-22T10:21:07.167Z,27.15
2022-08-22T10:22:07.120Z,27.45
2022-08-22T10:23:07.124Z,27.59
2022-08-22T10:24:07.358Z,27.31
2022-08-22T10:25:07.139Z,27.42
2022-08-22T10:26:07.169Z,27.59
2022-08-22T10:27:07.164Z,27.63
2022-08-22T10:28:07.112Z,27.53
2022-08-22T10:29:07.146Z,26.84
2022-08-22T10:30:07.110Z,26.75
2022-08-22T10:31:07.122Z,27.05
2022-08-22T10:32:14.568Z,27.15
2022-08-22T10:33:09.054Z,27.42
2022-08-22T10:34:07.065Z,27.72
2022-08-22T10:35:07.088Z,27.83
2022-08-22T10:36:07.041Z,27.83
2022-08-22T10:37:07.093Z,27.52
2022-08-22T10:38:07.069Z,27.69
2022-08-22T10:39:10.990Z,27.86
2022-08-22T10:40:07.142Z,27.74
2022-08-22T10:41:09.341Z,27.48
2022-08-22T10:42:07.053Z,27.80
2022-08-22T10:43:07.003Z,27.66
2022-08-22T10:44:07.096Z,27.74
2022-08-22T10:45:07.015Z,27.76
2022-08-22T10:46:07.008Z,28.06
2022-08-22T10:47:08.027Z,28.25
2022-08-22T10:48:09.040Z,28.39
2022-08-22T10:49:08.230Z,28.65
2022-08-22T10:50:10.794Z,28.91
2022-08-22T10:51:08.817Z,28.32
2022-08-22T10:52:15.364Z,27.95
2022-08-22T10:53:09.033Z,27.63
2022-08-22T10:54:06.998Z,27.74
2022-08-22T10:55:09.689Z,27.65
2022-08-22T10:56:06.947Z,27.62
2022-08-22T10:57:06.945Z,27.55
2022-08-22T10:58:07.041Z,27.53
2022-08-22T10:59:06.945Z,27.76
2022-08-22T11:00:06.901Z,27.38
2022-08-22T11:01:38.224Z,27.28
2022-08-22T11:02:08.167Z,27.46
2022-08-22T11:03:10.693Z,27.74
2022-08-22T11:04:08.918Z,27.76
2022-08-22T11:05:06.875Z,27.39
2022-08-22T11:06:06.882Z,27.50
2022-08-22T11:07:09.289Z,27.66
2022-08-22T11:08:06.852Z,27.80
2022-08-22T11:09:06.869Z,28.02
2022-08-22T11:10:06.895Z,28.11
2022-08-22T11:11:06.847Z,28.28
2022-08-22T11:12:06.828Z,28.45
2022-08-22T11:13:06.807Z,28.74
2022-08-22T11:14:06.841Z,28.98
2022-08-22T11:15:06.840Z,28.89
2022-08-22T11:16:06.787Z,28.51
2022-08-22T11:17:17.803Z,28.45
2022-08-22T11:18:07.782Z,28.25
2022-08-22T11:19:15.172Z,28.20
2022-08-22T11:20:07.818Z,27.87
2022-08-22T11:21:07.186Z,27.53
2022-08-22T11:22:06.748Z,27.02
2022-08-22T11:23:06.819Z,26.69
2022-08-22T11:24:06.755Z,26.78
2022-08-22T11:25:07.731Z,26.84
2022-08-22T11:26:06.787Z,26.78
2022-08-22T11:27:07.315Z,26.96
2022-08-22T11:28:07.741Z,26.97
2022-08-22T11:29:11.309Z,27.12
2022-08-22T11:30:07.699Z,27.11
2022-08-22T11:31:07.498Z,27.05
2022-08-22T11:32:07.991Z,27.01
2022-08-22T11:33:06.734Z,26.88
2022-08-22T11:34:06.680Z,27.15
2022-08-22T11:35:08.875Z,27.25
2022-08-22T11:36:06.684Z,27.27
2022-08-22T11:37:11.055Z,27.58
2022-08-22T11:38:10.975Z,27.96
2022-08-22T11:39:14.644Z,28.20
2022-08-22T11:40:07.818Z,28.57
2022-08-22T11:41:06.652Z,28.87
2022-08-22T11:42:06.663Z,29.11
2022-08-22T11:43:07.145Z,29.26
2022-08-22T11:44:07.614Z,29.45
2022-08-22T11:45:06.607Z,29.70
2022-08-22T11:46:06.617Z,29.89
2022-08-22T11:47:07.083Z,29.78
2022-08-22T11:48:06.605Z,29.37
2022-08-22T11:49:06.635Z,29.47
2022-08-22T11:50:10.703Z,29.15
2022-08-22T11:51:13.199Z,28.64
2022-08-22T11:52:07.554Z,28.06
2022-08-22T11:53:07.890Z,27.72
2022-08-22T11:54:06.583Z,27.68
2022-08-22T11:55:07.098Z,27.69
2022-08-22T11:56:06.553Z,27.59
2022-08-22T11:57:06.557Z,27.24
2022-08-22T11:58:06.602Z,27.62
2022-08-22T11:59:06.559Z,27.80
2022-08-22T12:00:06.582Z,27.93
2022-08-22T12:01:06.562Z,28.05
2022-08-22T12:02:08.703Z,28.24
2022-08-22T12:03:06.542Z,28.52
2022-08-22T12:04:06.499Z,28.46
2022-08-22T12:05:06.585Z,28.25
2022-08-22T12:06:06.527Z,28.43
2022-08-22T12:07:06.510Z,28.55
2022-08-22T12:08:06.536Z,28.83
2022-08-22T12:09:06.503Z,29.12
2022-08-22T12:10:06.602Z,29.26
2022-08-22T12:11:07.475Z,29.36
2022-08-22T12:12:06.462Z,28.65
2022-08-22T12:13:06.458Z,28.57
2022-08-22T12:14:06.843Z,28.54
2022-08-22T12:15:09.026Z,28.70
2022-08-22T12:16:06.477Z,28.85
2022-08-22T12:17:06.415Z,29.02
2022-08-22T12:18:06.481Z,29.12
2022-08-22T12:19:06.408Z,29.27
2022-08-22T12:20:16.406Z,29.55
2022-08-22T12:21:09.102Z,29.79
2022-08-22T12:22:06.399Z,29.91
2022-08-22T12:23:06.437Z,30.13
2022-08-22T12:24:06.471Z,30.08
2022-08-22T12:25:06.398Z,29.70
2022-08-22T12:26:11.021Z,29.08
2022-08-22T12:27:07.859Z,28.94
2022-08-22T12:28:06.386Z,28.89
2022-08-22T12:29:15.280Z,29.11
2022-08-22T12:30:14.033Z,29.11
2022-08-22T12:31:07.403Z,29.02
2022-08-22T12:32:06.340Z,28.80
2022-08-22T12:33:06.364Z,28.91
2022-08-22T12:34:07.495Z,29.10
2022-08-22T12:35:13.674Z,29.30
2022-08-22T12:36:09.494Z,29.42
2022-08-22T12:37:07.299Z,29.55
2022-08-22T12:38:29.361Z,29.51
2022-08-22T12:39:07.777Z,29.20
2022-08-22T12:40:06.403Z,29.23
2022-08-22T12:41:08.186Z,28.80
2022-08-22T12:42:06.297Z,28.62
2022-08-22T12:43:06.566Z,28.57
2022-08-22T12:44:06.347Z,28.79
2022-08-22T12:45:06.253Z,29.05